createdAt,value
2022-08-08T00:02:04.183Z,20.55
2022-08-08T00:04:33.312Z,20.51
2022-08-08T00:07:21.062Z,20.49
2022-08-08T00:10:10.814Z,20.46
2022-08-08T00:12:56.291Z,20.44
2022-08-08T00:15:56.674Z,20.40
2022-08-08T00:18:37.757Z,20.28
2022-08-08T00:21:16.342Z,20.22
2022-08-08T00:23:51.048Z,20.21
2022-08-08T00:26:29.366Z,20.19
2022-08-08T00:29:14.977Z,20.15
2022-08-08T00:32:20.751Z,20.15
2022-08-08T00:35:20.505Z,20.07
2022-08-08T00:38:06.386Z,20.04
2022-08-08T00:41:22.191Z,20.02
2022-08-08T00:44:34.672Z,19.99
2022-08-08T00:48:05.261Z,19.96
2022-08-08T00:51:22.846Z,19.89
2022-08-08T00:54:41.764Z,19.86
2022-08-08T00:57:48.519Z,19.85
2022-08-08T01:00:28.156Z,19.86
2022-08-08T01:04:02.128Z,19.81
2022-08-08T01:07:18.925Z,19.74
2022-08-08T01:10:42.866Z,19.72
2022-08-08T01:13:45.988Z,19.69
2022-08-08T01:16:57.695Z,19.67
2022-08-08T01:20:02.636Z,19.66
2022-08-08T01:22:55.727Z,19.63
2022-08-08T01:25:43.438Z,19.61
2022-08-08T01:28:36.892Z,19.59
2022-08-08T01:32:13.717Z,19.55
2022-08-08T01:35:30.650Z,19.50
2022-08-08T01:38:15.321Z,19.48
2022-08-08T01:41:01.530Z,19.50
2022-08-08T01:43:49.018Z,19.48
2022-08-08T01:46:47.709Z,19.45
2022-08-08T01:49:43.637Z,19.45
2022-08-08T01:53:35.270Z,19.43
2022-08-08T01:56:27.703Z,19.41
2022-08-08T01:58:38.883Z,19.37
2022-08-08T02:01:28.063Z,19.33
2022-08-08T02:04:22.107Z,19.30
2022-08-08T02:06:59.431Z,19.28
2022-08-08T02:10:02.512Z,19.26
2022-08-08T02:12:51.774Z,19.35
2022-08-08T02:15:30.535Z,19.38
2022-08-08T02:18:25.526Z,19.37
2022-08-08T02:21:18.299Z,19.35
2022-08-08T02:23:58.830Z,19.31
2022-08-08T02:26:35.449Z,19.29
2022-08-08T02:29:20.788Z,19.27
2022-08-08T02:32:08.611Z,19.26
2022-08-08T02:35:11.081Z,19.25
2022-08-08T02:38:41.568Z,19.18
2022-08-08T02:42:04.371Z,19.16
2022-08-08T02:45:18.836Z,19.14
2022-08-08T02:48:26.289Z,19.15
2022-08-08T02:51:38.961Z,19.12
2022-08-08T02:54:50.768Z,19.08
2022-08-08T02:57:55.172Z,19.09
2022-08-08T03:01:14.945Z,19.05
2022-08-08T03:05:02.374Z,19.03
2022-08-08T03:07:59.283Z,19.02
2022-08-08T03:11:31.815Z,19.02
2022-08-08T03:15:56.635Z,19.01
2022-08-08T03:17:39.708Z,19.01
2022-08-08T03:20:11.792Z,19.03
2022-08-08T03:22:56.188Z,19.02
2022-08-08T03:25:33.990Z,19.00
2022-08-08T03:28:10.924Z,19.01
2022-08-08T03:30:48.734Z,19.01
2022-08-08T03:34:00.274Z,19.03
2022-08-08T03:36:19.547Z,19.02
2022-08-08T03:39:04.194Z,19.01
2022-08-08T03:42:11.549Z,19.01
2022-08-08T03:44:34.842Z,19.01
2022-08-08T03:47:19.744Z,19.02
2022-08-08T03:49:58.607Z,19.05
2022-08-08T03:52:33.690Z,19.00
2022-08-08T03:55:55.272Z,19.02
2022-08-08T03:58:36.334Z,19.07
2022-08-08T04:01:01.552Z,19.18
2022-08-08T04:03:57.015Z,19.29
2022-08-08T04:06:29.401Z,19.28
2022-08-08T04:09:10.438Z,19.39
2022-08-08T04:11:58.930Z,19.54
2022-08-08T04:14:46.164Z,19.62
2022-08-08T04:17:45.735Z,19.72
2022-08-08T04:20:09.804Z,19.84
2022-08-08T04:22:38.811Z,19.92
2022-08-08T04:25:13.154Z,20.01
2022-08-08T04:28:02.250Z,20.12
2022-08-08T04:30:36.684Z,20.20
2022-08-08T04:33:15.703Z,20.31
2022-08-08T04:35:50.648Z,20.40
2022-08-08T04:38:22.180Z,20.50
2022-08-08T04:40:54.059Z,20.59
2022-08-08T04:43:32.342Z,20.68
2022-08-08T04:46:18.586Z,20.74
2022-08-08T04:48:49.447Z,20.85
2022-08-08T04:51:27.976Z,20.92
2022-08-08T04:54:38.229Z,21.01
2022-08-08T04:56:56.903Z,21.10
2022-08-08T04:59:30.069Z,21.19
2022-08-08T05:02:00.958Z,21.23
2022-08-08T05:04:30.287Z,21.30
2022-08-08T05:06:59.013Z,21.25
2022-08-08T05:09:27.595Z,21.28
2022-08-08T05:11:57.810Z,21.28
2022-08-08T05:14:30.978Z,21.32
2022-08-08T05:17:08.760Z,21.36
2022-08-08T05:20:09.579Z,21.39
2022-08-08T05:22:35.859Z,21.45
2022-08-08T05:25:06.185Z,21.50
2022-08-08T05:27:41.814Z,21.57
2022-08-08T05:30:16.676Z,21.63
2022-08-08T05:32:57.232Z,21.70
2022-08-08T05:35:27.784Z,21.81
2022-08-08T05:38:04.666Z,21.94
2022-08-08T05:40:58.070Z,22.11
2022-08-08T05:43:39.420Z,22.09
2022-08-08T05:46:24.611Z,22.11
2022-08-08T05:48:56.256Z,22.16
2022-08-08T05:51:48.132Z,22.26
2022-08-08T05:54:28.873Z,22.37
2022-08-08T05:57:57.455Z,22.43
2022-08-08T06:00:24.940Z,22.50
2022-08-08T06:03:24.860Z,22.55
2022-08-08T06:06:01.381Z,22.69
2022-08-08T06:08:40.260Z,22.82
2022-08-08T06:11:22.335Z,22.93
2022-08-08T06:13:57.101Z,23.05
2022-08-08T06:16:30.122Z,23.06
2022-08-08T06:19:07.366Z,23.11
2022-08-08T06:21:51.680Z,23.15
2022-08-08T06:24:35.908Z,23.18
2022-08-08T06:27:10.664Z,23.36
2022-08-08T06:29:59.170Z,23.44
2022-08-08T06:32:31.366Z,23.56
2022-08-08T06:35:35.536Z,23.62
2022-08-08T06:38:09.276Z,23.70
2022-08-08T06:40:48.596Z,23.77
2022-08-08T06:43:28.579Z,23.84
2022-08-08T06:46:09.216Z,23.91
2022-08-08T06:48:42.349Z,24.00
2022-08-08T06:51:15.899Z,24.08
2022-08-08T06:53:50.952Z,24.16
2022-08-08T06:56:32.119Z,24.25
2022-08-08T06:59:02.181Z,24.36
2022-08-08T07:02:18.142Z,24.53
2022-08-08T07:04:45.384Z,24.59
2022-08-08T07:07:39.590Z,24.72
2022-08-08T07:10:12.706Z,24.85
2022-08-08T07:12:47.453Z,24.97
2022-08-08T07:15:40.848Z,25.13
2022-08-08T07:18:36.813Z,25.30
2022-08-08T07:21:19.282Z,25.46
2022-08-08T07:24:03.081Z,25.53
2022-08-08T07:26:41.706Z,25.63
2022-08-08T07:29:20.421Z,25.69
2022-08-08T07:32:03.258Z,25.90
2022-08-08T07:34:33.063Z,25.97
2022-08-08T07:37:11.767Z,25.94
2022-08-08T07:39:57.918Z,26.13
2022-08-08T07:42:33.040Z,26.25
2022-08-08T07:45:04.564Z,26.54
2022-08-08T07:47:39.380Z,26.78
2022-08-08T07:50:11.796Z,26.86
2022-08-08T07:52:47.543Z,26.85
2022-08-08T07:55:28.651Z,26.87
2022-08-08T07:58:14.751Z,27.05
2022-08-08T08:00:49.349Z,27.19
2022-08-08T08:03:31.188Z,27.24
2022-08-08T08:06:16.513Z,27.36
2022-08-08T08:08:52.539Z,27.68
2022-08-08T08:11:33.565Z,27.71
2022-08-08T08:14:10.685Z,27.71
2022-08-08T08:16:48.542Z,27.79
2022-08-08T08:19:45.389Z,27.87
2022-08-08T08:22:31.252Z,28.00
2022-08-08T08:25:08.088Z,28.05
2022-08-08T08:27:46.568Z,28.12
2022-08-08T08:30:16.431Z,28.40
2022-08-08T08:32:51.459Z,28.45
2022-08-08T08:35:29.805Z,28.27
2022-08-08T08:38:17.534Z,28.20
2022-08-08T08:40:53.806Z,28.40
2022-08-08T08:43:26.861Z,28.40
2022-08-08T08:46:03.528Z,28.42
2022-08-08T08:48:35.008Z,28.49
2022-08-08T08:51:05.111Z,28.53
2022-08-08T08:53:56.649Z,28.71
2022-08-08T08:56:29.703Z,29.03
2022-08-08T08:59:15.089Z,29.06
2022-08-08T09:01:51.791Z,29.05
2022-08-08T09:04:38.589Z,29.16
2022-08-08T09:07:24.014Z,29.23
2022-08-08T09:10:17.454Z,29.31
2022-08-08T09:12:50.515Z,29.35
2022-08-08T09:15:37.073Z,29.57
2022-08-08T09:18:11.029Z,29.76
2022-08-08T09:21:58.543Z,29.80
2022-08-08T09:23:33.491Z,30.01
2022-08-08T09:26:13.692Z,29.85
2022-08-08T09:28:44.496Z,29.72
2022-08-08T09:31:56.665Z,29.56
2022-08-08T09:34:34.596Z,29.62
2022-08-08T09:37:46.251Z,30.09
2022-08-08T09:40:11.390Z,30.94
2022-08-08T09:42:44.277Z,31.52
2022-08-08T09:45:54.909Z,31.94
2022-08-08T09:48:21.092Z,31.89
2022-08-08T09:50:54.980Z,32.09
2022-08-08T09:53:53.118Z,32.43
2022-08-08T09:56:21.790Z,32.82
2022-08-08T09:58:58.535Z,33.01
2022-08-08T10:01:59.055Z,33.20
2022-08-08T10:04:38.377Z,33.25
2022-08-08T10:07:16.479Z,33.30
2022-08-08T10:09:59.761Z,33.19
2022-08-08T10:12:54.122Z,32.79
2022-08-08T10:15:27.568Z,32.40
2022-08-08T10:18:09.185Z,32.02
2022-08-08T10:20:51.066Z,31.61
2022-08-08T10:23:42.325Z,31.35
2022-08-08T10:26:25.815Z,31.28
2022-08-08T10:29:05.500Z,31.27
2022-08-08T10:31:54.979Z,31.14
2022-08-08T10:34:25.030Z,30.99
2022-08-08T10:36:59.647Z,30.91
2022-08-08T10:39:43.534Z,30.76
2022-08-08T10:42:21.256Z,30.89
2022-08-08T10:45:02.278Z,31.13
2022-08-08T10:47:43.948Z,31.35
2022-08-08T10:50:16.697Z,31.42
2022-08-08T10:52:46.550Z,31.48
2022-08-08T10:55:39.684Z,31.41
2022-08-08T10:58:07.797Z,31.40
2022-08-08T11:00:52.731Z,31.43
2022-08-08T11:03:36.528Z,31.66
2022-08-08T11:06:17.533Z,32.01
2022-08-08T11:08:49.960Z,32.33
2022-08-08T11:11:32.592Z,32.59
2022-08-08T11:14:16.083Z,32.69
2022-08-08T11:16:47.243Z,32.50
2022-08-08T11:19:17.205Z,32.30
2022-08-08T11:21:55.484Z,32.20
2022-08-08T11:24:27.395Z,31.98
2022-08-08T11:27:01.314Z,31.70
2022-08-08T11:29:51.498Z,31.48
2022-08-08T11:32:32.238Z,31.37
2022-08-08T11:35:23.176Z,31.34
2022-08-08T11:38:39.757Z,31.38
2022-08-08T11:40:51.743Z,31.49
2022-08-08T11:43:26.005Z,31.59
2022-08-08T11:46:17.855Z,31.69
2022-08-08T11:48:48.721Z,31.68
2022-08-08T11:51:29.580Z,31.57
2022-08-08T11:54:09.699Z,31.54
2022-08-08T11:56:57.625Z,31.60
2022-08-08T11:59:58.293Z,31.56
2022-08-08T12:02:33.020Z,31.57
2022-08-08T12:05:03.486Z,31.58
2022-08-08T12:07:32.421Z,31.60
2022-08-08T12:10:12.364Z,31.64
2022-08-08T12:12:48.680Z,31.64
2022-08-08T12:15:28.198Z,31.60
2022-08-08T12:17:56.603Z,31.43
2022-08-08T12:20:25.656Z,31.45
2022-08-08T12:22:57.032Z,31.57
2022-08-08T12:25:30.947Z,31.66
2022-08-08T12:28:15.467Z,31.73
2022-08-08T12:30:47.910Z,31.85
2022-08-08T12:33:19.840Z,31.89
2022-08-08T12:35:52.389Z,31.92
2022-08-08T12:41:33.685Z,31.87
2022-08-08T12:44:08.362Z,31.83
2022-08-08T12:46:37.710Z,31.99
2022-08-08T12:49:29.517Z,32.22
2022-08-08T12:52:00.372Z,32.34
2022-08-08T12:54:33.433Z,32.35
2022-08-08T12:57:17.358Z,32.46
2022-08-08T13:00:03.451Z,32.69
2022-08-08T13:02:37.016Z,32.94
2022-08-08T13:05:26.415Z,33.29
2022-08-08T13:08:17.742Z,33.53
2022-08-08T13:10:57.301Z,33.63
2022-08-08T13:13:35.470Z,33.79
2022-08-08T13:16:25.892Z,34.17
2022-08-08T13:19:02.585Z,34.18
2022-08-08T13:21:53.061Z,33.77
2022-08-08T13:24:42.265Z,33.43
2022-08-08T13:27:16.038Z,32.99
2022-08-08T13:29:54.971Z,32.35
2022-08-08T13:32:26.213Z,32.37
2022-08-08T13:34:56.120Z,32.81
2022-08-08T13:37:52.111Z,33.43
2022-08-08T13:40:17.801Z,33.94
2022-08-08T13:42:55.947Z,34.37
2022-08-08T13:45:27.186Z,34.74
2022-08-08T13:48:01.143Z,35.07
2022-08-08T13:50:48.062Z,35.07
2022-08-08T13:53:34.383Z,35.37
2022-08-08T13:56:11.868Z,35.41
2022-08-08T13:58:57.528Z,35.07
2022-08-08T14:01:32.748Z,34.82
2022-08-08T14:04:25.128Z,34.99
2022-08-08T14:07:00.428Z,35.12
2022-08-08T14:10:02.236Z,35.19
2022-08-08T14:12:28.213Z,35.16
2022-08-08T14:14:57.236Z,35.04
2022-08-08T14:17:57.109Z,34.67
2022-08-08T14:20:55.853Z,34.37
2022-08-08T14:23:10.153Z,34.21
2022-08-08T14:25:46.826Z,34.01
2022-08-08T14:28:23.705Z,33.88
2022-08-08T14:31:09.250Z,34.05
2022-08-08T14:33:39.316Z,34.34
2022-08-08T14:36:13.357Z,34.45
2022-08-08T14:38:52.545Z,34.24
2022-08-08T14:41:53.847Z,33.89
2022-08-08T14:44:16.965Z,33.62
2022-08-08T14:47:01.044Z,33.43
2022-08-08T14:49:37.801Z,33.45
2022-08-08T14:52:25.415Z,33.60
2022-08-08T14:54:53.777Z,33.72
2022-08-08T14:58:03.312Z,33.72
2022-08-08T15:00:11.885Z,33.65
2022-08-08T15:03:01.462Z,33.77
2022-08-08T15:05:42.956Z,33.90
2022-08-08T15:08:35.542Z,33.72
2022-08-08T15:11:09.493Z,33.29
2022-08-08T15:14:01.718Z,32.89
2022-08-08T15:16:34.292Z,32.49
2022-08-08T15:19:03.791Z,32.14
2022-08-08T15:21:33.072Z,31.94
2022-08-08T15:24:03.243Z,31.80
2022-08-08T15:26:32.181Z,31.70
2022-08-08T15:29:01.028Z,31.57
2022-08-08T15:32:03.029Z,31.86
2022-08-08T15:34:31.653Z,32.24
2022-08-08T15:37:02.941Z,32.39
2022-08-08T15:39:38.585Z,32.52
2022-08-08T15:42:10.210Z,32.68
2022-08-08T15:44:42.621Z,32.58
2022-08-08T15:47:16.306Z,32.44
2022-08-08T15:49:49.018Z,32.41
2022-08-08T15:52:20.774Z,32.41
2022-08-08T15:54:52.803Z,32.41
2022-08-08T15:57:23.210Z,32.41
2022-08-08T16:00:05.721Z,32.32
2022-08-08T16:02:50.203Z,32.32
2022-08-08T16:05:20.032Z,32.12
2022-08-08T16:07:53.150Z,31.83
2022-08-08T16:13:27.358Z,31.55
2022-08-08T16:13:32.479Z,31.54
2022-08-08T16:16:13.161Z,31.57
2022-08-08T16:18:56.882Z,31.29
2022-08-08T16:21:29.158Z,30.91
2022-08-08T16:23:58.552Z,30.65
2022-08-08T16:26:34.163Z,30.51
2022-08-08T16:29:10.838Z,30.59
2022-08-08T16:31:48.751Z,30.82
2022-08-08T16:34:19.172Z,30.92
2022-08-08T16:36:50.280Z,31.00
2022-08-08T16:39:54.949Z,31.01
2022-08-08T16:42:17.808Z,30.95
2022-08-08T16:44:54.444Z,30.92
2022-08-08T16:47:40.471Z,30.77
2022-08-08T16:50:14.671Z,30.61
2022-08-08T16:55:19.333Z,30.41
2022-08-08T16:55:53.940Z,30.19
2022-08-08T16:58:25.630Z,30.02
2022-08-08T17:00:58.098Z,29.91
2022-08-08T17:04:01.303Z,29.75
2022-08-08T17:06:17.677Z,29.58
2022-08-08T17:09:05.288Z,29.52
2022-08-08T17:11:49.305Z,29.49
2022-08-08T17:14:27.254Z,29.42
2022-08-08T17:16:58.244Z,29.35
2022-08-08T17:19:28.986Z,29.17
2022-08-08T17:22:01.080Z,29.00
2022-08-08T17:24:30.934Z,28.88
2022-08-08T17:27:00.129Z,28.83
2022-08-08T17:29:33.677Z,28.86
2022-08-08T17:32:07.829Z,28.77
2022-08-08T17:35:04.377Z,28.62
2022-08-08T17:37:27.627Z,28.45
2022-08-08T17:40:12.263Z,28.37
2022-08-08T17:42:47.365Z,28.30
2022-08-08T17:45:23.927Z,28.31
2022-08-08T17:47:54.618Z,28.26
2022-08-08T17:50:24.848Z,28.20
2022-08-08T17:52:54.093Z,28.13
2022-08-08T17:56:05.366Z,28.05
2022-08-08T17:58:15.470Z,27.98
2022-08-08T18:00:47.525Z,27.99
2022-08-08T18:03:24.370Z,27.91
2022-08-08T18:05:53.089Z,27.83
2022-08-08T18:08:24.824Z,27.78
2022-08-08T18:11:15.320Z,27.58
2022-08-08T18:13:45.785Z,27.46
2022-08-08T18:16:20.664Z,27.37
2022-08-08T18:18:56.641Z,27.30
2022-08-08T18:22:00.403Z,27.21
2022-08-08T18:24:19.425Z,27.14
2022-08-08T18:26:54.442Z,27.08
2022-08-08T18:29:33.480Z,26.99
2022-08-08T18:32:05.388Z,26.91
2022-08-08T18:34:36.929Z,26.85
2022-08-08T18:37:09.327Z,26.80
2022-08-08T18:57:08.888Z,26.05
2022-08-08T19:00:10.693Z,26.03
2022-08-08T19:04:01.566Z,25.92
2022-08-08T19:22:37.591Z,25.23
2022-08-08T19:26:01.795Z,25.18
2022-08-08T19:28:19.479Z,25.10
2022-08-08T19:44:02.833Z,24.65
2022-08-08T19:51:46.893Z,24.47
2022-08-08T19:55:19.772Z,24.45
2022-08-08T20:02:30.912Z,24.28
2022-08-08T20:08:32.302Z,24.18
2022-08-08T20:11:01.085Z,24.14
2022-08-08T20:14:12.831Z,24.11
2022-08-08T20:16:18.842Z,24.03
2022-08-08T20:18:53.022Z,23.98
2022-08-08T20:21:27.354Z,23.90
2022-08-08T20:24:00.277Z,23.85
2022-08-08T20:26:29.832Z,23.77
2022-08-08T20:29:02.582Z,23.71
2022-08-08T20:32:06.869Z,23.65
2022-08-08T20:34:30.281Z,23.57
2022-08-08T20:37:02.497Z,23.47
2022-08-08T20:39:39.559Z,23.41
2022-08-08T20:42:28.756Z,23.34
2022-08-08T20:45:07.092Z,23.26
2022-08-08T20:47:36.528Z,23.21
2022-08-08T20:50:10.062Z,23.15
2022-08-08T20:52:39.547Z,23.10
2022-08-08T20:55:22.364Z,23.03
2022-08-08T20:57:51.554Z,22.98
2022-08-08T21:00:41.307Z,22.94
2022-08-08T21:03:16.956Z,22.90
2022-08-08T21:05:49.169Z,22.84
2022-08-08T21:08:36.759Z,22.80
2022-08-08T21:11:16.959Z,22.75
2022-08-08T21:14:06.724Z,22.70
2022-08-08T21:16:36.932Z,22.66
2022-08-08T21:19:10.928Z,22.64
2022-08-08T21:21:42.711Z,22.62
2022-08-08T21:24:20.948Z,22.55
2022-08-08T21:26:59.171Z,22.51
2022-08-08T21:30:05.669Z,22.48
2022-08-08T21:32:25.117Z,22.43
2022-08-08T21:34:56.770Z,22.42
2022-08-08T21:37:53.758Z,22.39
2022-08-08T21:40:31.097Z,22.36
2022-08-08T21:42:59.670Z,22.32
2022-08-08T21:48:00.862Z,22.29
2022-08-08T21:48:35.395Z,22.24
2022-08-08T21:51:10.740Z,22.19
2022-08-08T21:54:35.170Z,22.13
2022-08-08T21:56:36.043Z,22.09
2022-08-08T22:00:03.310Z,22.05
2022-08-08T22:02:22.835Z,21.96
2022-08-08T22:04:52.987Z,21.92
2022-08-08T22:07:26.120Z,21.89
2022-08-08T22:10:09.313Z,21.85
2022-08-08T22:12:51.145Z,21.81
2022-08-08T22:15:20.118Z,21.78
2022-08-08T22:18:01.997Z,21.70
2022-08-08T22:20:35.778Z,21.69
2022-08-08T22:23:08.267Z,21.66
2022-08-08T22:26:19.991Z,21.62
2022-08-08T22:29:14.383Z,21.55
2022-08-08T22:31:15.629Z,21.53
2022-08-08T22:34:12.403Z,21.49
2022-08-08T22:36:34.746Z,21.43
2022-08-08T22:39:06.675Z,21.39
2022-08-08T22:41:36.422Z,21.35
2022-08-08T22:44:07.449Z,21.30
2022-08-08T22:46:38.999Z,21.27
2022-08-08T22:49:09.256Z,21.21
2022-08-08T22:51:46.061Z,21.19
2022-08-08T22:54:30.679Z,21.15
2022-08-08T22:57:11.327Z,21.10
2022-08-08T22:59:58.664Z,21.07
2022-08-08T23:02:28.816Z,21.03
2022-08-08T23:05:01.958Z,20.99
2022-08-08T23:07:51.085Z,20.98
2022-08-08T23:10:25.302Z,20.93
2022-08-08T23:12:56.348Z,20.92
2022-08-08T23:16:41.202Z,20.89
2022-08-08T23:18:13.651Z,20.85
2022-08-08T23:20:56.715Z,20.80
2022-08-08T23:23:24.982Z,20.77
2022-08-08T23:25:53.088Z,20.72
2022-08-08T23:28:25.883Z,20.69
2022-08-08T23:30:54.069Z,20.65
2022-08-08T23:34:16.696Z,20.63
2022-08-08T23:36:11.426Z,20.56
2022-08-08T23:38:44.054Z,20.55
2022-08-08T23:41:23.115Z,20.49
2022-08-08T23:43:56.464Z,20.48
2022-08-08T23:49:03.603Z,20.45
2022-08-08T23:49:20.520Z,20.40
2022-08-08T23:52:04.794Z,20.39
2022-08-08T23:54:43.130Z,20.39
2022-08-08T23:57:39.130Z,20.34
